createdAt,value
2018-01-21T00:01:16.471Z,11.47
2018-01-21T00:03:43.963Z,12.47
2018-01-21T00:06:12.237Z,10.47
2018-01-21T00:08:40.483Z,9.90
2018-01-21T00:11:07.965Z,10.13
2018-01-21T00:13:36.246Z,10.53
2018-01-21T00:16:04.496Z,10.33
2018-01-21T00:18:31.976Z,9.13
2018-01-21T00:21:00.222Z,9.47
2018-01-21T00:23:27.718Z,10.63
2018-01-21T00:25:56.068Z,11.13
2018-01-21T00:28:23.658Z,10.80
2018-01-21T00:30:51.926Z,9.87
2018-01-21T00:33:20.223Z,8.33
2018-01-21T00:35:48.501Z,9.97
2018-01-21T00:38:16.736Z,7.70
2018-01-21T00:40:45.009Z,7.90
2018-01-21T00:43:12.488Z,9.97
2018-01-21T00:45:39.953Z,8.40
2018-01-21T00:48:08.206Z,9.10
2018-01-21T00:50:35.693Z,8.33
2018-01-21T00:53:03.929Z,6.60
2018-01-21T00:55:32.933Z,7.00
2018-01-21T00:58:00.419Z,7.10
2018-01-21T01:00:28.649Z,5.57
2018-01-21T01:02:56.273Z,7.35
2018-01-21T01:05:23.754Z,6.30
2018-01-21T01:07:51.265Z,7.60
2018-01-21T01:10:18.835Z,7.20
2018-01-21T01:12:47.082Z,6.70
2018-01-21T01:15:14.566Z,7.47
2018-01-21T01:17:42.857Z,9.20
2018-01-21T01:20:10.399Z,8.30
2018-01-21T01:22:38.630Z,7.73
2018-01-21T01:25:06.130Z,8.97
2018-01-21T01:27:33.614Z,10.60
2018-01-21T01:30:01.152Z,9.53
2018-01-21T01:32:32.406Z,11.63
2018-01-21T01:35:00.658Z,11.10
2018-01-21T01:37:28.126Z,9.60
2018-01-21T01:39:56.378Z,11.10
2018-01-21T01:42:23.899Z,11.03
2018-01-21T01:44:51.373Z,11.47
2018-01-21T01:47:18.837Z,11.40
2018-01-21T01:49:46.325Z,13.97
2018-01-21T01:52:14.638Z,15.07
2018-01-21T01:54:42.117Z,13.27
2018-01-21T01:57:09.601Z,14.00
2018-01-21T01:59:37.089Z,13.30
2018-01-21T02:02:05.366Z,12.57
2018-01-21T02:04:33.632Z,11.27
2018-01-21T02:07:01.109Z,10.53
2018-01-21T02:09:29.396Z,11.43
2018-01-21T02:11:56.852Z,12.37
2018-01-21T02:14:24.384Z,9.67
2018-01-21T02:16:51.945Z,10.17
2018-01-21T02:19:19.439Z,12.60
2018-01-21T02:21:46.971Z,11.23
2018-01-21T02:24:14.440Z,10.20
2018-01-21T02:26:42.690Z,11.37
2018-01-21T02:29:10.162Z,10.27
2018-01-21T02:31:37.717Z,10.07
2018-01-21T02:34:05.278Z,8.90
2018-01-21T02:36:32.746Z,9.57
2018-01-21T02:39:00.990Z,10.00
2018-01-21T02:41:28.573Z,9.03
2018-01-21T02:43:56.806Z,8.60
2018-01-21T02:46:24.313Z,10.77
2018-01-21T02:48:52.679Z,10.00
2018-01-21T02:51:20.155Z,9.93
2018-01-21T02:53:48.393Z,10.40
2018-01-21T02:56:15.891Z,10.83
2018-01-21T02:58:44.129Z,9.90
2018-01-21T03:01:11.603Z,9.40
2018-01-21T03:03:39.183Z,9.77
2018-01-21T03:06:07.462Z,8.80
2018-01-21T03:08:35.702Z,11.40
2018-01-21T03:11:03.195Z,10.53
2018-01-21T03:13:31.471Z,9.60
2018-01-21T03:15:59.026Z,9.23
2018-01-21T03:18:27.291Z,7.20
2018-01-21T03:20:56.294Z,8.23
2018-01-21T03:23:24.534Z,7.40
2018-01-21T03:25:52.030Z,7.77
2018-01-21T03:28:20.310Z,6.73
2018-01-21T03:30:48.551Z,6.80
2018-01-21T03:33:16.034Z,7.83
2018-01-21T03:35:43.602Z,8.77
2018-01-21T03:38:11.842Z,7.40
2018-01-21T03:40:39.335Z,8.37
2018-01-21T03:43:07.574Z,9.00
2018-01-21T03:45:35.038Z,6.90
2018-01-21T03:48:02.521Z,8.00
2018-01-21T03:50:29.989Z,9.07
2018-01-21T03:52:58.262Z,9.43
2018-01-21T03:55:26.505Z,7.70
2018-01-21T03:57:53.995Z,7.43
2018-01-21T04:00:22.228Z,7.90
2018-01-21T04:02:49.716Z,9.40
2018-01-21T04:05:17.303Z,7.97
2018-01-21T04:07:45.539Z,14.17
2018-01-21T04:10:13.026Z,10.90
2018-01-21T04:12:41.288Z,11.90
2018-01-21T04:15:08.769Z,12.40
2018-01-21T04:17:37.043Z,12.50
2018-01-21T04:20:05.287Z,11.00
2018-01-21T04:22:32.760Z,11.00
2018-01-21T04:25:00.246Z,12.67
2018-01-21T04:27:27.796Z,11.43
2018-01-21T04:29:56.034Z,13.93
2018-01-21T04:32:23.526Z,13.60
2018-01-21T04:34:51.762Z,13.87
2018-01-21T04:37:19.230Z,13.20
2018-01-21T04:39:46.718Z,14.30
2018-01-21T04:42:14.954Z,12.20
2018-01-21T04:44:42.438Z,17.30
2018-01-21T04:47:10.695Z,17.90
2018-01-21T04:49:38.193Z,15.70
2018-01-21T04:52:06.429Z,19.73
2018-01-21T04:54:33.917Z,21.20
2018-01-21T04:57:02.157Z,22.10
2018-01-21T04:59:29.629Z,19.60
2018-01-21T05:01:57.893Z,20.63
2018-01-21T05:04:25.372Z,21.83
2018-01-21T05:06:52.863Z,23.60
2018-01-21T05:09:20.369Z,23.20
2018-01-21T05:11:47.854Z,20.20
2018-01-21T05:14:15.335Z,21.13
2018-01-21T05:16:43.585Z,21.43
2018-01-21T05:19:11.154Z,19.37
2018-01-21T05:21:39.398Z,20.77
2018-01-21T05:24:06.884Z,20.67
2018-01-21T05:26:35.134Z,19.30
2018-01-21T05:29:02.643Z,19.80
2018-01-21T05:31:30.878Z,18.40
2018-01-21T05:33:58.362Z,18.30
2018-01-21T05:36:26.598Z,20.03
2018-01-21T05:38:54.094Z,16.97
2018-01-21T05:41:22.362Z,16.53
2018-01-21T05:43:49.842Z,14.97
2018-01-21T05:46:18.105Z,15.60
2018-01-21T05:48:46.350Z,15.00
2018-01-21T05:51:13.830Z,16.67
2018-01-21T05:53:41.312Z,14.83
2018-01-21T05:56:08.801Z,15.33
2018-01-21T05:58:36.278Z,16.53
2018-01-21T06:01:04.113Z,15.10
2018-01-21T06:03:31.597Z,16.53
2018-01-21T06:05:59.065Z,16.47
2018-01-21T06:08:26.553Z,14.73
2018-01-21T06:10:54.835Z,12.47
2018-01-21T06:13:23.075Z,12.50
2018-01-21T06:15:50.563Z,12.90
2018-01-21T06:18:18.812Z,14.93
2018-01-21T06:20:46.306Z,11.93
2018-01-21T06:23:14.572Z,12.93
2018-01-21T06:25:42.819Z,13.23
2018-01-21T06:28:10.290Z,12.53
2018-01-21T06:30:39.298Z,12.67
2018-01-21T06:33:06.766Z,11.17
2018-01-21T06:35:35.034Z,10.87
2018-01-21T06:38:03.280Z,9.47
2018-01-21T06:40:30.742Z,7.13
2018-01-21T06:42:58.981Z,8.40
2018-01-21T06:45:26.465Z,9.60
2018-01-21T06:47:53.962Z,7.90
2018-01-21T06:50:22.201Z,8.57
2018-01-21T06:52:49.692Z,10.23
2018-01-21T06:55:17.966Z,7.30
2018-01-21T06:57:46.246Z,8.20
2018-01-21T07:00:14.499Z,9.67
2018-01-21T07:02:41.967Z,7.23
2018-01-21T07:05:10.949Z,7.43
2018-01-21T07:07:38.433Z,7.27
2018-01-21T07:10:06.682Z,7.17
2018-01-21T07:12:34.165Z,6.93
2018-01-21T07:15:01.736Z,8.60
2018-01-21T07:17:29.975Z,7.13
2018-01-21T07:19:57.448Z,7.77
2018-01-21T07:22:26.463Z,7.47
2018-01-21T07:24:54.702Z,5.67
2018-01-21T07:27:22.191Z,7.77
2018-01-21T07:29:50.438Z,8.93
2018-01-21T07:32:17.922Z,8.93
2018-01-21T07:34:46.173Z,6.67
2018-01-21T07:37:13.660Z,7.00
2018-01-21T07:39:41.898Z,8.10
2018-01-21T07:42:09.426Z,7.30
2018-01-21T07:44:36.953Z,7.33
2018-01-21T07:47:05.228Z,7.47
2018-01-21T07:49:33.465Z,6.47
2018-01-21T07:52:00.949Z,8.70
2018-01-21T07:54:28.522Z,5.50
2018-01-21T07:56:56.793Z,5.27
2018-01-21T07:59:24.359Z,5.60
2018-01-21T08:01:52.594Z,5.43
2018-01-21T08:04:20.075Z,6.07
2018-01-21T08:06:53.288Z,6.40
2018-01-21T08:09:21.544Z,4.80
2018-01-21T08:11:49.021Z,5.30
2018-01-21T08:14:17.265Z,8.00
2018-01-21T08:16:44.755Z,5.40
2018-01-21T08:19:13.005Z,4.97
2018-01-21T08:21:40.489Z,5.03
2018-01-21T08:24:08.743Z,5.53
2018-01-21T08:26:37.733Z,5.63
2018-01-21T08:29:05.219Z,5.20
2018-01-21T08:31:33.455Z,6.00
2018-01-21T08:34:06.553Z,5.40
2018-01-21T08:36:39.651Z,5.73
2018-01-21T08:39:12.717Z,5.70
2018-01-21T08:41:42.210Z,5.40
2018-01-21T08:44:09.688Z,5.40
2018-01-21T08:46:37.186Z,5.93
2018-01-21T08:49:05.466Z,4.90
2018-01-21T08:51:33.735Z,5.90
2018-01-21T08:54:01.990Z,6.23
2018-01-21T08:56:29.483Z,6.20
2018-01-21T08:58:56.962Z,6.03
2018-01-21T09:01:24.484Z,5.30
2018-01-21T09:03:52.730Z,4.70
2018-01-21T09:06:20.194Z,5.40
2018-01-21T09:08:47.738Z,4.70
2018-01-21T09:11:15.268Z,5.40
2018-01-21T09:13:42.778Z,5.70
2018-01-21T09:16:11.074Z,4.73
2018-01-21T09:18:39.353Z,5.23
2018-01-21T09:21:07.599Z,4.80
2018-01-21T09:23:35.093Z,5.23
2018-01-21T09:26:03.361Z,6.93
2018-01-21T09:28:31.601Z,5.17
2018-01-21T09:30:59.089Z,5.13
2018-01-21T09:33:26.565Z,5.20
2018-01-21T09:35:54.805Z,5.70
2018-01-21T09:38:22.287Z,6.07
2018-01-21T09:40:50.559Z,5.47
2018-01-21T09:43:18.849Z,4.80
2018-01-21T09:45:47.107Z,4.27
2018-01-21T09:48:14.585Z,4.60
2018-01-21T09:50:42.866Z,5.80
2018-01-21T09:53:11.128Z,4.73
2018-01-21T09:55:39.390Z,4.70
2018-01-21T09:58:07.000Z,4.87
2018-01-21T10:00:34.503Z,4.60
2018-01-21T10:03:02.038Z,4.60
2018-01-21T10:05:29.551Z,4.30
2018-01-21T10:07:57.812Z,4.23
2018-01-21T10:10:26.087Z,4.43
2018-01-21T10:12:53.568Z,4.20
2018-01-21T10:15:21.845Z,4.20
2018-01-21T10:17:50.094Z,4.83
2018-01-21T10:20:17.608Z,4.30
2018-01-21T10:22:45.126Z,4.07
2018-01-21T10:25:13.357Z,3.67
2018-01-21T10:27:40.825Z,3.80
2018-01-21T10:30:08.417Z,3.70
2018-01-21T10:32:36.665Z,3.37
2018-01-21T10:35:04.129Z,4.53
2018-01-21T10:37:31.619Z,4.60
2018-01-21T10:39:59.901Z,4.60
2018-01-21T10:42:27.443Z,5.00
2018-01-21T10:44:54.924Z,4.03
2018-01-21T10:47:22.404Z,4.13
2018-01-21T10:49:49.882Z,3.77
2018-01-21T10:52:17.368Z,3.90
2018-01-21T10:54:44.940Z,4.00
2018-01-21T10:57:13.179Z,4.20
2018-01-21T10:59:40.666Z,3.63
2018-01-21T11:02:08.130Z,3.93
2018-01-21T11:04:36.368Z,3.57
2018-01-21T11:07:03.857Z,3.10
2018-01-21T11:09:31.326Z,4.80
2018-01-21T11:11:59.569Z,3.37
2018-01-21T11:14:27.074Z,3.33
2018-01-21T11:16:54.614Z,3.80
2018-01-21T11:19:22.904Z,3.30
2018-01-21T11:21:51.158Z,3.27
2018-01-21T11:24:18.726Z,2.80
2018-01-21T11:26:47.064Z,3.30
2018-01-21T11:29:14.683Z,2.87
2018-01-21T11:31:42.913Z,3.83
2018-01-21T11:34:10.391Z,3.07
2018-01-21T11:36:37.967Z,3.70
2018-01-21T11:39:06.205Z,3.37
2018-01-21T11:41:33.699Z,4.13
2018-01-21T11:44:01.979Z,3.70
2018-01-21T11:46:30.233Z,3.53
2018-01-21T11:48:58.483Z,6.83
2018-01-21T11:51:25.991Z,4.27
2018-01-21T11:53:54.239Z,4.80
2018-01-21T11:56:21.755Z,4.93
2018-01-21T11:58:49.271Z,4.37
2018-01-21T12:01:16.760Z,3.60
2018-01-21T12:03:44.294Z,4.43
2018-01-21T12:06:12.578Z,5.70
2018-01-21T12:08:41.630Z,4.93
2018-01-21T12:11:09.101Z,5.33
2018-01-21T12:13:36.585Z,5.33
2018-01-21T12:16:04.864Z,5.50
2018-01-21T12:18:33.136Z,6.07
2018-01-21T12:21:01.388Z,6.00
2018-01-21T12:23:28.861Z,4.80
2018-01-21T12:25:56.330Z,5.17
2018-01-21T12:28:24.602Z,5.47
2018-01-21T12:30:52.848Z,7.20
2018-01-21T12:33:20.327Z,5.57
2018-01-21T12:35:47.823Z,6.30
2018-01-21T12:38:15.359Z,12.63
2018-01-21T12:40:43.634Z,6.77
2018-01-21T12:43:11.887Z,6.27
2018-01-21T12:45:39.364Z,6.50
2018-01-21T12:48:07.618Z,7.53
2018-01-21T12:50:35.111Z,8.07
2018-01-21T12:53:03.352Z,7.20
2018-01-21T12:55:32.340Z,7.00
2018-01-21T12:57:59.830Z,8.00
2018-01-21T13:00:28.080Z,7.70
2018-01-21T13:02:55.558Z,11.13
2018-01-21T13:05:23.116Z,6.40
2018-01-21T13:07:50.734Z,6.60
2018-01-21T13:10:18.224Z,6.97
2018-01-21T13:12:45.811Z,7.13
2018-01-21T13:15:14.068Z,8.43
2018-01-21T13:17:41.639Z,6.40
2018-01-21T13:20:09.918Z,13.63
2018-01-21T13:22:38.195Z,6.30
2018-01-21T13:25:06.467Z,6.00
2018-01-21T13:27:34.743Z,7.10
2018-01-21T13:30:02.986Z,6.23
2018-01-21T13:32:30.463Z,7.03
2018-01-21T13:34:57.941Z,8.60
2018-01-21T13:37:26.183Z,6.70
2018-01-21T13:39:53.649Z,6.67
2018-01-21T13:42:21.915Z,5.80
2018-01-21T13:44:49.391Z,7.00
2018-01-21T13:47:16.856Z,6.47
2018-01-21T13:49:44.350Z,6.30
2018-01-21T13:52:11.923Z,7.17
2018-01-21T13:54:39.375Z,5.93
2018-01-21T13:57:06.900Z,6.10
2018-01-21T13:59:34.358Z,5.73
2018-01-21T14:02:02.590Z,6.07
2018-01-21T14:04:30.078Z,4.73
2018-01-21T14:06:57.550Z,4.93
2018-01-21T14:09:25.814Z,5.17
2018-01-21T14:11:53.445Z,4.10
2018-01-21T14:14:20.979Z,3.43
2018-01-21T14:16:48.497Z,3.83
2018-01-21T14:19:15.978Z,3.90
2018-01-21T14:21:43.451Z,3.97
2018-01-21T14:24:10.922Z,4.90
2018-01-21T14:26:38.433Z,6.40
2018-01-21T14:29:06.709Z,5.83
2018-01-21T14:31:34.955Z,4.20
2018-01-21T14:34:02.672Z,4.73
2018-01-21T14:36:30.157Z,4.17
2018-01-21T14:38:57.627Z,4.60
2018-01-21T14:41:25.142Z,4.83
2018-01-21T14:43:54.011Z,5.97
2018-01-21T14:46:21.518Z,5.17
2018-01-21T14:48:48.982Z,5.40
2018-01-21T14:51:16.831Z,6.53
2018-01-21T14:53:44.502Z,4.47
2018-01-21T14:56:12.020Z,4.20
2018-01-21T14:58:40.259Z,5.03
2018-01-21T15:01:07.738Z,4.83
2018-01-21T15:03:36.032Z,3.97
2018-01-21T15:06:04.274Z,5.17
2018-01-21T15:08:31.738Z,4.33
2018-01-21T15:10:59.325Z,4.37
2018-01-21T15:13:27.597Z,4.60
2018-01-21T15:15:55.161Z,5.10
2018-01-21T15:18:23.411Z,4.97
2018-01-21T15:20:50.881Z,4.83
2018-01-21T15:23:19.169Z,5.87
2018-01-21T15:25:46.661Z,5.13
2018-01-21T15:28:14.195Z,5.37
2018-01-21T15:30:42.471Z,5.60
2018-01-21T15:33:10.745Z,6.83
2018-01-21T15:35:38.213Z,6.10
2018-01-21T15:38:06.451Z,7.63
2018-01-21T15:40:34.039Z,6.30
2018-01-21T15:43:02.283Z,6.50
2018-01-21T15:45:29.757Z,6.40
2018-01-21T15:47:58.762Z,7.20
2018-01-21T15:50:26.470Z,8.43
2018-01-21T15:52:53.945Z,8.40
2018-01-21T15:55:21.428Z,7.10
2018-01-21T15:57:48.894Z,7.20
2018-01-21T16:00:16.466Z,8.33
2018-01-21T16:02:44.014Z,8.90
2018-01-21T16:05:11.486Z,8.10
2018-01-21T16:07:39.726Z,9.10
2018-01-21T16:10:07.207Z,8.10
2018-01-21T16:12:34.673Z,7.07
2018-01-21T16:15:02.910Z,9.53
2018-01-21T16:17:30.402Z,6.90
2018-01-21T16:19:58.646Z,7.63
2018-01-21T16:22:26.882Z,6.93
2018-01-21T16:24:54.365Z,9.70
2018-01-21T16:27:21.873Z,8.10
2018-01-21T16:29:50.119Z,9.57
2018-01-21T16:32:17.603Z,9.07
2018-01-21T16:34:45.077Z,10.63
2018-01-21T16:37:25.169Z,11.80
2018-01-21T16:39:52.651Z,14.03
2018-01-21T16:42:20.133Z,10.53
2018-01-21T16:44:47.703Z,14.60
2018-01-21T16:47:15.981Z,13.60
2018-01-21T16:49:44.226Z,13.77
2018-01-21T16:52:11.737Z,11.70
2018-01-21T16:54:39.218Z,16.20
2018-01-21T16:57:06.728Z,13.40
2018-01-21T16:59:34.990Z,13.13
2018-01-21T17:02:03.231Z,10.87
2018-01-21T17:04:30.706Z,19.13
2018-01-21T17:06:58.198Z,12.20
2018-01-21T17:09:26.434Z,12.67
2018-01-21T17:11:53.926Z,12.93
2018-01-21T17:14:22.182Z,12.63
2018-01-21T17:16:50.482Z,12.90
2018-01-21T17:19:18.726Z,13.80
2018-01-21T17:21:46.224Z,13.20
2018-01-21T17:24:14.466Z,11.53
2018-01-21T17:26:41.937Z,13.00
2018-01-21T17:29:09.431Z,12.77
2018-01-21T17:31:36.907Z,13.83
2018-01-21T17:34:04.384Z,14.60
2018-01-21T17:36:31.883Z,15.70
2018-01-21T17:39:00.143Z,14.43
2018-01-21T17:41:28.432Z,13.17
2018-01-21T17:43:56.697Z,14.03
2018-01-21T17:46:25.703Z,12.80
2018-01-21T17:48:53.289Z,14.03
2018-01-21T17:51:20.787Z,12.03
2018-01-21T17:53:48.531Z,11.03
2018-01-21T17:56:16.055Z,11.60
2018-01-21T17:58:44.427Z,13.37
2018-01-21T18:01:13.115Z,13.20
2018-01-21T18:03:41.386Z,13.30
2018-01-21T18:06:09.650Z,13.70
2018-01-21T18:08:38.642Z,15.63
2018-01-21T18:11:07.644Z,16.33
2018-01-21T18:13:36.646Z,15.50
2018-01-21T18:16:04.926Z,14.17
2018-01-21T18:18:33.170Z,16.07
2018-01-21T18:21:01.066Z,13.87
2018-01-21T18:23:29.320Z,14.73
2018-01-21T18:25:56.802Z,13.83
2018-01-21T18:28:25.070Z,15.63
2018-01-21T18:30:52.549Z,14.43
2018-01-21T18:33:20.801Z,16.87
2018-01-21T18:35:49.099Z,16.20
2018-01-21T18:38:17.348Z,20.30
2018-01-21T18:40:45.605Z,22.03
2018-01-21T18:43:13.109Z,17.03
2018-01-21T18:45:41.367Z,18.17
2018-01-21T18:48:08.882Z,19.30
2018-01-21T18:50:36.391Z,18.97
2018-01-21T18:53:03.931Z,16.60
2018-01-21T18:55:31.418Z,17.77
2018-01-21T18:57:59.695Z,18.40
2018-01-21T19:00:27.993Z,17.03
2018-01-21T19:02:55.484Z,16.30
2018-01-21T19:05:22.969Z,17.17
2018-01-21T19:07:50.463Z,18.07
2018-01-21T19:10:17.962Z,17.63
2018-01-21T19:12:45.468Z,17.53
2018-01-21T19:15:13.710Z,17.87
2018-01-21T19:17:41.194Z,20.00
2018-01-21T19:20:09.476Z,25.67
2018-01-21T19:22:37.718Z,19.87
2018-01-21T19:25:05.212Z,21.97
2018-01-21T19:27:33.470Z,22.10
2018-01-21T19:30:01.762Z,21.07
2018-01-21T19:32:30.013Z,23.83
2018-01-21T19:34:57.515Z,25.97
2018-01-21T19:37:24.997Z,25.77
2018-01-21T19:40:04.261Z,27.37
2018-01-21T19:42:32.678Z,21.53
2018-01-21T19:45:00.947Z,24.23
2018-01-21T19:47:29.327Z,26.93
2018-01-21T19:49:57.609Z,23.97
2018-01-21T19:52:25.863Z,23.70
2018-01-21T19:54:53.362Z,23.50
2018-01-21T19:57:20.923Z,20.97
2018-01-21T19:59:48.411Z,23.37
2018-01-21T20:02:15.903Z,22.20
2018-01-21T20:04:43.459Z,23.87
2018-01-21T20:07:10.953Z,19.83
2018-01-21T20:09:38.488Z,35.27
2018-01-21T20:12:06.745Z,28.67
2018-01-21T20:14:34.230Z,20.33
2018-01-21T20:17:01.734Z,17.10
2018-01-21T20:19:29.224Z,22.33
2018-01-21T20:21:56.716Z,27.30
2018-01-21T20:24:24.208Z,26.87
2018-01-21T20:26:51.693Z,29.33
2018-01-21T20:29:19.182Z,21.77
2018-01-21T20:31:47.475Z,22.50
2018-01-21T20:34:15.015Z,24.37
2018-01-21T20:36:42.589Z,22.73
2018-01-21T20:39:10.089Z,25.67
2018-01-21T20:41:37.584Z,25.87
2018-01-21T20:44:05.829Z,24.87
2018-01-21T20:46:33.336Z,24.30
2018-01-21T20:49:00.827Z,29.33
2018-01-21T20:51:34.055Z,30.03
2018-01-21T20:54:07.311Z,33.30
2018-01-21T20:56:34.835Z,38.93
2018-01-21T20:59:03.091Z,36.90
2018-01-21T21:01:30.591Z,38.43
2018-01-21T21:03:58.083Z,37.07
2018-01-21T21:06:25.571Z,38.30
2018-01-21T21:08:53.858Z,38.50
2018-01-21T21:11:22.122Z,43.73
2018-01-21T21:13:50.408Z,47.70
2018-01-21T21:16:18.674Z,41.77
2018-01-21T21:18:46.938Z,40.07
2018-01-21T21:21:15.182Z,42.60
2018-01-21T21:23:42.828Z,30.83
2018-01-21T21:26:10.350Z,35.40
2018-01-21T21:28:38.730Z,33.33
2018-01-21T21:31:06.982Z,35.40
2018-01-21T21:33:34.480Z,28.80
2018-01-21T21:36:02.726Z,31.33
2018-01-21T21:38:30.210Z,33.70
2018-01-21T21:40:58.462Z,26.13
2018-01-21T21:43:26.724Z,28.10
2018-01-21T21:45:54.198Z,25.00
2018-01-21T21:48:22.014Z,25.70
2018-01-21T21:50:49.537Z,27.50
2018-01-21T21:53:17.783Z,26.43
2018-01-21T21:55:45.345Z,22.60
2018-01-21T21:58:12.825Z,25.00
2018-01-21T22:00:41.139Z,20.40
2018-01-21T22:03:08.653Z,23.77
2018-01-21T22:05:36.221Z,22.03
2018-01-21T22:08:05.459Z,20.33
2018-01-21T22:10:32.985Z,18.80
2018-01-21T22:13:01.233Z,20.07
2018-01-21T22:15:28.742Z,18.60
2018-01-21T22:17:56.278Z,21.33
2018-01-21T22:20:24.526Z,18.60
2018-01-21T22:22:52.114Z,19.10
2018-01-21T22:25:20.385Z,18.10
2018-01-21T22:27:47.904Z,20.50
2018-01-21T22:30:15.396Z,20.80
2018-01-21T22:32:42.969Z,18.90
2018-01-21T22:35:11.229Z,21.00
2018-01-21T22:37:38.706Z,21.53
2018-01-21T22:40:06.982Z,18.43
2018-01-21T22:42:35.221Z,17.60
2018-01-21T22:45:02.705Z,19.60
2018-01-21T22:47:30.515Z,16.53
2018-01-21T22:49:58.037Z,22.47
2018-01-21T22:52:26.289Z,20.63
2018-01-21T22:54:53.781Z,22.37
2018-01-21T22:57:22.037Z,23.70
2018-01-21T22:59:49.610Z,20.73
2018-01-21T23:02:17.875Z,21.67
2018-01-21T23:04:45.357Z,20.93
2018-01-21T23:20:02.639Z,21.60
2018-01-21T23:22:31.630Z,19.87
2018-01-21T23:24:59.128Z,22.37
2018-01-21T23:27:26.630Z,22.20
2018-01-21T23:29:54.126Z,23.70
2018-01-21T23:32:22.369Z,21.07
2018-01-21T23:34:49.860Z,20.90
2018-01-21T23:37:18.140Z,17.80
2018-01-21T23:39:45.617Z,20.57
2018-01-21T23:42:13.189Z,19.60
2018-01-21T23:44:40.665Z,21.10
2018-01-21T23:47:08.211Z,17.40
2018-01-21T23:49:35.814Z,18.30
2018-01-21T23:52:03.292Z,20.50
2018-01-21T23:54:31.539Z,23.00
2018-01-21T23:56:59.035Z,22.53
2018-01-21T23:59:26.519Z,21.10
